sensor_id;sensor_type;location;lat;lon;timestamp;pressure;altitude;pressure_sealevel;temperature;humidity
17525;BME280;40431;52.198;9.902;2023-03-31T00:01:48;99602.00;;;10.91;100.00
17525;BME280;40431;52.198;9.902;2023-03-31T00:04:16;99596.34;;;10.94;100.00
17525;BME280;40431;52.198;9.902;2023-03-31T00:06:43;99597.09;;;10.96;100.00
17525;BME280;40431;52.198;9.902;2023-03-31T00:09:12;99598.31;;;10.92;100.00
17525;BME280;40431;52.198;9.902;2023-03-31T00:11:43;99593.63;;;10.94;100.00
17525;BME280;40431;52.198;9.902;2023-03-31T00:14:11;99595.13;;;10.98;100.00
17525;BME280;40431;52.198;9.902;2023-03-31T00:16:38;99585.03;;;11.00;100.00
17525;BME280;40431;52.198;9.902;2023-03-31T00:19:05;99586.13;;;10.97;100.00
17525;BME280;40431;52.198;9.902;2023-03-31T00:21:34;99586.50;;;11.04;100.00
17525;BME280;40431;52.198;9.902;2023-03-31T00:24:03;99568.38;;;11.05;100.00
17525;BME280;40431;52.198;9.902;2023-03-31T00:26:33;99574.91;;;11.02;100.00
17525;BME280;40431;52.198;9.902;2023-03-31T00:28:59;99574.50;;;10.95;100.00
17525;BME280;40431;52.198;9.902;2023-03-31T00:31:27;99568.00;;;10.98;100.00
17525;BME280;40431;52.198;9.902;2023-03-31T00:33:54;99571.47;;;11.00;100.00
17525;BME280;40431;52.198;9.902;2023-03-31T00:36:21;99559.84;;;10.98;100.00
17525;BME280;40431;52.198;9.902;2023-03-31T00:38:52;99551.72;;;10.98;100.00
17525;BME280;40431;52.198;9.902;2023-03-31T00:41:19;99556.75;;;10.91;100.00
17525;BME280;40431;52.198;9.902;2023-03-31T00:44:08;99550.72;;;10.88;100.00
17525;BME280;40431;52.198;9.902;2023-03-31T00:46:41;99547.66;;;10.92;100.00
17525;BME280;40431;52.198;9.902;2023-03-31T00:49:13;99550.22;;;10.94;100.00
17525;BME280;40431;52.198;9.902;2023-03-31T00:51:42;99548.03;;;10.99;100.00
17525;BME280;40431;52.198;9.902;2023-03-31T00:54:10;99543.06;;;10.93;100.00
17525;BME280;40431;52.198;9.902;2023-03-31T00:56:41;99537.44;;;10.96;100.00
17525;BME280;40431;52.198;9.902;2023-03-31T00:59:11;99532.59;;;10.99;100.00
17525;BME280;40431;52.198;9.902;2023-03-31T01:01:39;99520.91;;;10.99;100.00
17525;BME280;40431;52.198;9.902;2023-03-31T01:04:08;99522.00;;;10.96;100.00
17525;BME280;40431;52.198;9.902;2023-03-31T01:06:39;99518.06;;;11.00;100.00
17525;BME280;40431;52.198;9.902;2023-03-31T01:09:11;99515.84;;;11.06;100.00
17525;BME280;40431;52.198;9.902;2023-03-31T01:11:39;99509.31;;;11.08;100.00
17525;BME280;40431;52.198;9.902;2023-03-31T01:14:05;99510.56;;;11.04;100.00
17525;BME280;40431;52.198;9.902;2023-03-31T01:16:33;99505.25;;;11.02;100.00
17525;BME280;40431;52.198;9.902;2023-03-31T01:18:59;99495.38;;;11.01;100.00
17525;BME280;40431;52.198;9.902;2023-03-31T01:21:47;99488.84;;;11.04;100.00
17525;BME280;40431;52.198;9.902;2023-03-31T01:24:44;99486.13;;;11.04;100.00
17525;BME280;40431;52.198;9.902;2023-03-31T01:27:36;99488.34;;;10.99;100.00
17525;BME280;40431;52.198;9.902;2023-03-31T01:39:48;99473.19;;;10.96;100.00
17525;BME280;40431;52.198;9.902;2023-03-31T01:42:26;99458.00;;;10.94;100.00
17525;BME280;40431;52.198;9.902;2023-03-31T01:45:01;99469.25;;;10.89;100.00
17525;BME280;40431;52.198;9.902;2023-03-31T01:47:32;99458.63;;;10.86;100.00
17525;BME280;40431;52.198;9.902;2023-03-31T01:50:07;99454.81;;;10.89;100.00
17525;BME280;40431;52.198;9.902;2023-03-31T01:52:39;99446.44;;;10.80;100.00
17525;BME280;40431;52.198;9.902;2023-03-31T01:55:13;99445.81;;;10.77;100.00
17525;BME280;40431;52.198;9.902;2023-03-31T01:57:46;99438.69;;;10.76;100.00
17525;BME280;40431;52.198;9.902;2023-03-31T02:00:16;99439.28;;;10.79;100.00
17525;BME280;40431;52.198;9.902;2023-03-31T02:02:47;99443.09;;;10.77;100.00
17525;BME280;40431;52.198;9.902;2023-03-31T02:05:18;99441.47;;;10.74;100.00
17525;BME280;40431;52.198;9.902;2023-03-31T02:07:48;99435.34;;;10.72;100.00
17525;BME280;40431;52.198;9.902;2023-03-31T02:10:19;99424.75;;;10.69;100.00
17525;BME280;40431;52.198;9.902;2023-03-31T02:12:49;99423.38;;;10.63;100.00
17525;BME280;40431;52.198;9.902;2023-03-31T02:15:20;99428.44;;;10.68;100.00
17525;BME280;40431;52.198;9.902;2023-03-31T02:17:51;99423.22;;;10.65;100.00
17525;BME280;40431;52.198;9.902;2023-03-31T02:20:20;99419.31;;;10.58;100.00
17525;BME280;40431;52.198;9.902;2023-03-31T02:22:51;99415.63;;;10.59;100.00
17525;BME280;40431;52.198;9.902;2023-03-31T02:25:22;99409.31;;;10.58;100.00
17525;BME280;40431;52.198;9.902;2023-03-31T02:27:54;99397.38;;;10.61;100.00
17525;BME280;40431;52.198;9.902;2023-03-31T02:30:24;99402.78;;;10.61;100.00
17525;BME280;40431;52.198;9.902;2023-03-31T02:32:54;99398.97;;;10.52;100.00
17525;BME280;40431;52.198;9.902;2023-03-31T02:35:20;99401.31;;;10.57;100.00
17525;BME280;40431;52.198;9.902;2023-03-31T02:37:47;99397.63;;;10.58;100.00
17525;BME280;40431;52.198;9.902;2023-03-31T02:40:17;99387.53;;;10.60;100.00
17525;BME280;40431;52.198;9.902;2023-03-31T02:42:45;99383.09;;;10.59;100.00
17525;BME280;40431;52.198;9.902;2023-03-31T02:45:41;99392.94;;;10.60;100.00
17525;BME280;40431;52.198;9.902;2023-03-31T02:48:10;99373.97;;;10.60;100.00
17525;BME280;40431;52.198;9.902;2023-03-31T02:50:53;99375.94;;;10.58;100.00
17525;BME280;40431;52.198;9.902;2023-03-31T02:53:30;99366.31;;;10.53;100.00
17525;BME280;40431;52.198;9.902;2023-03-31T02:56:11;99365.56;;;10.51;100.00
17525;BME280;40431;52.198;9.902;2023-03-31T02:58:52;99359.94;;;10.55;100.00
17525;BME280;40431;52.198;9.902;2023-03-31T03:01:42;99360.66;;;10.57;100.00
17525;BME280;40431;52.198;9.902;2023-03-31T03:04:28;99357.22;;;10.55;100.00
17525;BME280;40431;52.198;9.902;2023-03-31T03:07:05;99354.63;;;10.53;100.00
17525;BME280;40431;52.198;9.902;2023-03-31T03:09:38;99359.94;;;10.55;100.00
17525;BME280;40431;52.198;9.902;2023-03-31T03:12:12;99351.03;;;10.52;100.00
17525;BME280;40431;52.198;9.902;2023-03-31T03:14:47;99346.50;;;10.53;100.00
17525;BME280;40431;52.198;9.902;2023-03-31T03:17:21;99349.31;;;10.51;100.00
17525;BME280;40431;52.198;9.902;2023-03-31T03:19:53;99340.31;;;10.51;100.00
17525;BME280;40431;52.198;9.902;2023-03-31T03:22:19;99345.00;;;10.49;100.00
17525;BME280;40431;52.198;9.902;2023-03-31T03:24:46;99334.66;;;10.43;100.00
17525;BME280;40431;52.198;9.902;2023-03-31T03:27:13;99330.97;;;10.44;100.00
17525;BME280;40431;52.198;9.902;2023-03-31T03:29:39;99333.78;;;10.42;100.00
17525;BME280;40431;52.198;9.902;2023-03-31T03:32:08;99328.63;;;10.39;100.00
17525;BME280;40431;52.198;9.902;2023-03-31T03:34:35;99325.19;;;10.37;100.00
17525;BME280;40431;52.198;9.902;2023-03-31T03:37:01;99313.22;;;10.40;100.00
17525;BME280;40431;52.198;9.902;2023-03-31T03:39:27;99311.09;;;10.32;100.00
17525;BME280;40431;52.198;9.902;2023-03-31T03:41:55;99297.22;;;10.36;100.00
17525;BME280;40431;52.198;9.902;2023-03-31T03:44:21;99302.22;;;10.30;100.00
17525;BME280;40431;52.198;9.902;2023-03-31T03:46:47;99301.38;;;10.29;100.00
17525;BME280;40431;52.198;9.902;2023-03-31T03:49:15;99285.97;;;10.30;100.00
17525;BME280;40431;52.198;9.902;2023-03-31T03:51:42;99285.72;;;10.22;100.00
17525;BME280;40431;52.198;9.902;2023-03-31T03:54:08;99278.31;;;10.24;100.00
17525;BME280;40431;52.198;9.902;2023-03-31T03:56:34;99272.69;;;10.27;100.00
17525;BME280;40431;52.198;9.902;2023-03-31T03:59:01;99264.78;;;10.24;100.00
17525;BME280;40431;52.198;9.902;2023-03-31T04:01:27;99259.50;;;10.22;100.00
17525;BME280;40431;52.198;9.902;2023-03-31T04:03:53;99264.78;;;10.24;100.00
17525;BME280;40431;52.198;9.902;2023-03-31T04:06:22;99259.97;;;10.27;100.00
17525;BME280;40431;52.198;9.902;2023-03-31T04:08:48;99252.97;;;10.25;100.00
17525;BME280;40431;52.198;9.902;2023-03-31T04:11:16;99249.53;;;10.23;100.00
17525;BME280;40431;52.198;9.902;2023-03-31T04:13:43;99246.81;;;10.23;100.00
17525;BME280;40431;52.198;9.902;2023-03-31T04:16:10;99234.13;;;10.23;100.00
17525;BME280;40431;52.198;9.902;2023-03-31T04:18:37;99231.81;;;10.18;100.00
17525;BME280;40431;52.198;9.902;2023-03-31T04:21:07;99223.91;;;10.15;100.00
17525;BME280;40431;52.198;9.902;2023-03-31T04:23:41;99211.59;;;10.11;100.00
17525;BME280;40431;52.198;9.902;2023-03-31T04:26:10;99212.22;;;10.03;100.00
17525;BME280;40431;52.198;9.902;2023-03-31T04:28:37;99206.44;;;10.08;100.00
17525;BME280;40431;52.198;9.902;2023-03-31T04:31:08;99204.72;;;10.07;100.00
17525;BME280;40431;52.198;9.902;2023-03-31T04:33:39;99189.09;;;10.11;100.00
17525;BME280;40431;52.198;9.902;2023-03-31T04:36:07;99186.25;;;10.12;100.00
17525;BME280;40431;52.198;9.902;2023-03-31T04:38:43;99172.56;;;10.14;100.00
17525;BME280;40431;52.198;9.902;2023-03-31T04:41:11;99167.91;;;10.16;100.00
17525;BME280;40431;52.198;9.902;2023-03-31T04:43:38;99155.69;;;10.10;100.00
17525;BME280;40431;52.198;9.902;2023-03-31T04:46:04;99157.16;;;10.14;100.00
17525;BME280;40431;52.198;9.902;2023-03-31T04:48:30;99150.41;;;10.20;100.00
17525;BME280;40431;52.198;9.902;2023-03-31T04:50:57;99151.53;;;10.17;100.00
17525;BME280;40431;52.198;9.902;2023-03-31T04:53:23;99142.06;;;10.12;100.00
17525;BME280;40431;52.198;9.902;2023-03-31T04:55:51;99137.22;;;10.15;100.00
17525;BME280;40431;52.198;9.902;2023-03-31T04:58:18;99123.81;;;10.14;100.00
17525;BME280;40431;52.198;9.902;2023-03-31T05:00:44;99124.09;;;10.11;100.00
17525;BME280;40431;52.198;9.902;2023-03-31T05:03:11;99119.25;;;10.14;100.00
17525;BME280;40431;52.198;9.902;2023-03-31T05:05:37;99124.81;;;10.13;100.00
17525;BME280;40431;52.198;9.902;2023-03-31T05:08:04;99117.56;;;10.13;100.00
17525;BME280;40431;52.198;9.902;2023-03-31T05:10:30;99112.38;;;10.10;100.00
17525;BME280;40431;52.198;9.902;2023-03-31T05:12:58;99114.34;;;10.08;100.00
17525;BME280;40431;52.198;9.902;2023-03-31T05:15:24;99112.00;;;10.03;100.00
17525;BME280;40431;52.198;9.902;2023-03-31T05:17:53;99111.44;;;10.00;100.00
17525;BME280;40431;52.198;9.902;2023-03-31T05:20:20;99108.22;;;9.95;100.00
17525;BME280;40431;52.198;9.902;2023-03-31T05:22:46;99102.81;;;9.95;100.00
17525;BME280;40431;52.198;9.902;2023-03-31T05:25:13;99105.75;;;9.92;100.00
17525;BME280;40431;52.198;9.902;2023-03-31T05:27:43;99105.66;;;9.93;100.00
17525;BME280;40431;52.198;9.902;2023-03-31T05:30:12;99096.16;;;9.88;100.00
17525;BME280;40431;52.198;9.902;2023-03-31T05:32:38;99097.63;;;9.92;100.00
17525;BME280;40431;52.198;9.902;2023-03-31T05:35:05;99095.69;;;9.94;100.00
17525;BME280;40431;52.198;9.902;2023-03-31T05:37:32;99101.09;;;9.94;100.00
17525;BME280;40431;52.198;9.902;2023-03-31T05:39:59;99111.66;;;9.97;100.00
17525;BME280;40431;52.198;9.902;2023-03-31T05:42:25;99109.97;;;9.96;100.00
17525;BME280;40431;52.198;9.902;2023-03-31T05:44:52;99109.97;;;9.96;100.00
17525;BME280;40431;52.198;9.902;2023-03-31T05:47:19;99109.22;;;9.94;100.00
17525;BME280;40431;52.198;9.902;2023-03-31T05:49:47;99107.25;;;9.96;100.00
17525;BME280;40431;52.198;9.902;2023-03-31T05:52:13;99108.81;;;9.98;100.00
17525;BME280;40431;52.198;9.902;2023-03-31T05:54:40;99101.44;;;10.00;100.00
17525;BME280;40431;52.198;9.902;2023-03-31T05:57:07;99096.66;;;10.04;100.00
17525;BME280;40431;52.198;9.902;2023-03-31T05:59:36;99086.31;;;10.09;100.00
17525;BME280;40431;52.198;9.902;2023-03-31T06:02:03;99085.81;;;10.04;100.00
17525;BME280;40431;52.198;9.902;2023-03-31T06:04:31;99082.34;;;10.02;100.00
17525;BME280;40431;52.198;9.902;2023-03-31T06:06:58;99072.41;;;10.02;100.00
17525;BME280;40431;52.198;9.902;2023-03-31T06:09:25;99064.38;;;10.01;100.00
17525;BME280;40431;52.198;9.902;2023-03-31T06:11:52;99063.88;;;10.07;100.00
17525;BME280;40431;52.198;9.902;2023-03-31T06:14:19;99056.50;;;10.09;100.00
17525;BME280;40431;52.198;9.902;2023-03-31T06:16:45;99058.94;;;10.12;100.00
17525;BME280;40431;52.198;9.902;2023-03-31T06:19:12;99056.97;;;10.14;100.00
17525;BME280;40431;52.198;9.902;2023-03-31T06:21:40;99051.44;;;10.16;100.00
17525;BME280;40431;52.198;9.902;2023-03-31T06:24:07;99048.34;;;10.20;100.00
17525;BME280;40431;52.198;9.902;2023-03-31T06:26:36;99041.94;;;10.22;100.00
17525;BME280;40431;52.198;9.902;2023-03-31T06:29:02;99045.25;;;10.25;100.00
17525;BME280;40431;52.198;9.902;2023-03-31T06:31:30;99051.78;;;10.23;100.00
17525;BME280;40431;52.198;9.902;2023-03-31T06:33:57;99049.06;;;10.23;100.00
17525;BME280;40431;52.198;9.902;2023-03-31T06:36:25;99043.91;;;10.19;100.00
17525;BME280;40431;52.198;9.902;2023-03-31T06:38:54;99048.34;;;10.20;100.00
17525;BME280;40431;52.198;9.902;2023-03-31T06:41:20;99037.75;;;10.17;100.00
17525;BME280;40431;52.198;9.902;2023-03-31T06:43:47;99045.16;;;10.15;100.00
17525;BME280;40431;52.198;9.902;2023-03-31T06:46:14;99046.03;;;10.16;100.00
17525;BME280;40431;52.198;9.902;2023-03-31T06:48:40;99037.75;;;10.17;100.00
17525;BME280;40431;52.198;9.902;2023-03-31T06:51:07;99037.50;;;10.20;100.00
17525;BME280;40431;52.198;9.902;2023-03-31T06:53:34;99029.00;;;10.25;100.00
17525;BME280;40431;52.198;9.902;2023-03-31T06:56:03;99031.56;;;10.27;100.00
17525;BME280;40431;52.198;9.902;2023-03-31T06:58:30;99035.75;;;10.31;100.00
17525;BME280;40431;52.198;9.902;2023-03-31T07:00:57;99031.56;;;10.27;100.00
17525;BME280;40431;52.198;9.902;2023-03-31T07:03:23;99022.91;;;10.33;100.00
17525;BME280;40431;52.198;9.902;2023-03-31T07:05:51;99016.78;;;10.31;100.00
17525;BME280;40431;52.198;9.902;2023-03-31T07:08:18;99012.84;;;10.35;100.00
17525;BME280;40431;52.198;9.902;2023-03-31T07:10:46;99006.53;;;10.34;100.00
17525;BME280;40431;52.198;9.902;2023-03-31T07:13:14;99000.03;;;10.37;100.00
17525;BME280;40431;52.198;9.902;2023-03-31T07:15:41;98990.19;;;10.36;100.00
17525;BME280;40431;52.198;9.902;2023-03-31T07:18:07;98994.25;;;10.30;100.00
17525;BME280;40431;52.198;9.902;2023-03-31T07:20:34;98992.53;;;10.29;100.00
17525;BME280;40431;52.198;9.902;2023-03-31T07:23:02;98992.25;;;10.32;100.00
17525;BME280;40431;52.198;9.902;2023-03-31T07:25:29;98983.16;;;10.33;100.00
17525;BME280;40431;52.198;9.902;2023-03-31T07:27:56;98990.06;;;10.38;100.00
17525;BME280;40431;52.198;9.902;2023-03-31T07:30:23;98985.75;;;10.35;100.00
17525;BME280;40431;52.198;9.902;2023-03-31T07:32:52;98978.56;;;10.34;100.00
17525;BME280;40431;52.198;9.902;2023-03-31T07:35:18;98974.91;;;10.35;100.00
17525;BME280;40431;52.198;9.902;2023-03-31T07:37:46;98968.63;;;10.34;100.00
17525;BME280;40431;52.198;9.902;2023-03-31T07:40:16;98970.94;;;10.39;100.00
17525;BME280;40431;52.198;9.902;2023-03-31T07:42:42;98967.97;;;10.42;100.00
17525;BME280;40431;52.198;9.902;2023-03-31T07:45:11;98965.25;;;10.42;100.00
17525;BME280;40431;52.198;9.902;2023-03-31T07:47:39;98956.88;;;10.45;100.00
17525;BME280;40431;52.198;9.902;2023-03-31T07:50:06;98952.19;;;10.47;100.00
17525;BME280;40431;52.198;9.902;2023-03-31T07:52:33;98948.28;;;10.40;100.00
17525;BME280;40431;52.198;9.902;2023-03-31T07:54:59;98934.94;;;10.48;100.00
17525;BME280;40431;52.198;9.902;2023-03-31T07:57:26;98934.88;;;10.60;100.00
17525;BME280;40431;52.198;9.902;2023-03-31T07:59:52;98925.19;;;10.67;100.00
17525;BME280;40431;52.198;9.902;2023-03-31T08:02:18;98925.78;;;10.71;100.00
17525;BME280;40431;52.198;9.902;2023-03-31T08:04:47;98931.41;;;10.79;100.00
17525;BME280;40431;52.198;9.902;2023-03-31T08:07:14;98931.25;;;10.80;100.00
17525;BME280;40431;52.198;9.902;2023-03-31T08:09:43;98919.00;;;10.86;100.00
17525;BME280;40431;52.198;9.902;2023-03-31T08:12:10;98916.44;;;10.84;100.00
17525;BME280;40431;52.198;9.902;2023-03-31T08:14:36;98913.56;;;10.86;100.00
17525;BME280;40431;52.198;9.902;2023-03-31T08:17:03;98900.91;;;10.86;100.00
17525;BME280;40431;52.198;9.902;2023-03-31T08:19:29;98908.47;;;10.93;100.00
17525;BME280;40431;52.198;9.902;2023-03-31T08:21:57;98896.03;;;10.90;100.00
17525;BME280;40431;52.198;9.902;2023-03-31T08:24:23;98891.22;;;10.94;100.00
17525;BME280;40431;52.198;9.902;2023-03-31T08:26:50;98883.66;;;10.97;100.00
17525;BME280;40431;52.198;9.902;2023-03-31T08:29:17;98889.25;;;11.06;100.00
17525;BME280;40431;52.198;9.902;2023-03-31T08:31:43;98877.88;;;11.12;100.00
17525;BME280;40431;52.198;9.902;2023-03-31T08:34:09;98873.28;;;11.12;100.00
17525;BME280;40431;52.198;9.902;2023-03-31T08:36:36;98875.72;;;11.15;100.00
17525;BME280;40431;52.198;9.902;2023-03-31T08:39:03;98867.75;;;11.24;100.00
17525;BME280;40431;52.198;9.902;2023-03-31T08:41:39;98864.22;;;11.33;100.00
17525;BME280;40431;52.198;9.902;2023-03-31T08:44:14;98871.31;;;11.34;100.00
17525;BME280;40431;52.198;9.902;2023-03-31T08:46:42;98862.63;;;11.30;100.00
17525;BME280;40431;52.198;9.902;2023-03-31T08:49:13;98855.03;;;11.34;100.00
17525;BME280;40431;52.198;9.902;2023-03-31T08:51:47;98853.22;;;11.34;100.00
17525;BME280;40431;52.198;9.902;2023-03-31T08:54:19;98848.22;;;11.40;100.00
17525;BME280;40431;52.198;9.902;2023-03-31T08:56:48;98841.66;;;11.42;100.00
17525;BME280;40431;52.198;9.902;2023-03-31T08:59:21;98835.94;;;11.45;100.00
17525;BME280;40431;52.198;9.902;2023-03-31T09:01:56;98840.63;;;11.43;100.00
17525;BME280;40431;52.198;9.902;2023-03-31T09:04:42;98836.22;;;11.42;100.00
17525;BME280;40431;52.198;9.902;2023-03-31T09:07:14;98838.66;;;11.45;100.00
17525;BME280;40431;52.198;9.902;2023-03-31T09:09:50;98841.50;;;11.44;100.00
17525;BME280;40431;52.198;9.902;2023-03-31T09:12:23;98838.66;;;11.45;100.00
17525;BME280;40431;52.198;9.902;2023-03-31T09:14:53;98837.50;;;11.48;100.00
17525;BME280;40431;52.198;9.902;2023-03-31T09:17:25;98834.22;;;11.44;100.00
17525;BME280;40431;52.198;9.902;2023-03-31T09:19:55;98833.91;;;11.38;100.00
17525;BME280;40431;52.198;9.902;2023-03-31T09:22:26;98831.22;;;11.28;100.00
17525;BME280;40431;52.198;9.902;2023-03-31T09:24:59;98830.47;;;11.26;100.00
17525;BME280;40431;52.198;9.902;2023-03-31T09:27:30;98835.34;;;11.22;100.00
17525;BME280;40431;52.198;9.902;2023-03-31T09:30:02;98825.63;;;11.19;100.00
17525;BME280;40431;52.198;9.902;2023-03-31T09:32:30;98829.59;;;11.15;100.00
17525;BME280;40431;52.198;9.902;2023-03-31T09:35:00;98821.44;;;11.06;100.00
17525;BME280;40431;52.198;9.902;2023-03-31T09:37:30;98821.59;;;11.04;100.00
17525;BME280;40431;52.198;9.902;2023-03-31T09:40:00;98813.75;;;11.01;100.00
17525;BME280;40431;52.198;9.902;2023-03-31T09:42:32;98818.97;;;10.93;100.00
17525;BME280;40431;52.198;9.902;2023-03-31T09:44:58;98811.41;;;10.86;100.00
17525;BME280;40431;52.198;9.902;2023-03-31T09:47:31;98807.72;;;10.88;100.00
17525;BME280;40431;52.198;9.902;2023-03-31T09:49:58;98811.06;;;10.70;100.00
17525;BME280;40431;52.198;9.902;2023-03-31T09:52:28;98804.78;;;10.60;100.00
17525;BME280;40431;52.198;9.902;2023-03-31T09:54:59;98806.06;;;10.56;100.00
17525;BME280;40431;52.198;9.902;2023-03-31T09:57:29;98807.03;;;10.55;100.00
17525;BME280;40431;52.198;9.902;2023-03-31T10:00:01;98805.84;;;10.47;100.00
17525;BME280;40431;52.198;9.902;2023-03-31T10:02:36;98798.16;;;10.52;100.00
17525;BME280;40431;52.198;9.902;2023-03-31T10:05:06;98788.22;;;10.53;100.00
17525;BME280;40431;52.198;9.902;2023-03-31T10:07:43;98794.94;;;10.59;100.00
17525;BME280;40431;52.198;9.902;2023-03-31T10:10:24;98797.63;;;10.59;100.00
17525;BME280;40431;52.198;9.902;2023-03-31T10:12:52;98789.38;;;10.60;100.00
17525;BME280;40431;52.198;9.902;2023-03-31T10:15:21;98788.50;;;10.60;100.00
17525;BME280;40431;52.198;9.902;2023-03-31T10:17:48;98786.78;;;10.59;100.00
17525;BME280;40431;52.198;9.902;2023-03-31T10:20:29;98794.75;;;10.50;100.00
17525;BME280;40431;52.198;9.902;2023-03-31T10:23:02;98786.63;;;10.50;100.00
17525;BME280;40431;52.198;9.902;2023-03-31T10:25:31;98785.34;;;10.55;100.00
17525;BME280;40431;52.198;9.902;2023-03-31T10:28:00;98789.50;;;10.59;100.00
17525;BME280;40431;52.198;9.902;2023-03-31T10:30:33;98798.16;;;10.52;100.00
17525;BME280;40431;52.198;9.902;2023-03-31T10:33:05;98790.78;;;10.55;100.00
17525;BME280;40431;52.198;9.902;2023-03-31T10:35:33;98781.47;;;10.47;100.00
17525;BME280;40431;52.198;9.902;2023-03-31T10:38:03;98783.91;;;10.50;100.00
17525;BME280;40431;52.198;9.902;2023-03-31T10:40:32;98789.59;;;10.47;100.00
17525;BME280;40431;52.198;9.902;2023-03-31T10:43:03;98799.31;;;10.50;100.00
17525;BME280;40431;52.198;9.902;2023-03-31T10:45:36;98795.28;;;10.44;100.00
17525;BME280;40431;52.198;9.902;2023-03-31T10:48:08;98784.63;;;10.52;100.00
17525;BME280;40431;52.198;9.902;2023-03-31T10:50:41;98782.19;;;10.49;100.00
17525;BME280;40431;52.198;9.902;2023-03-31T10:53:11;98779.19;;;10.52;100.00
17525;BME280;40431;52.198;9.902;2023-03-31T10:55:43;98781.91;;;10.52;100.00
17525;BME280;40431;52.198;9.902;2023-03-31T10:58:21;98774.34;;;10.46;100.00
17525;BME280;40431;52.198;9.902;2023-03-31T11:01:01;98783.59;;;10.44;100.00
17525;BME280;40431;52.198;9.902;2023-03-31T11:03:46;98770.53;;;10.28;100.00
17525;BME280;40431;52.198;9.902;2023-03-31T11:06:21;98777.25;;;10.33;100.00
17525;BME280;40431;52.198;9.902;2023-03-31T11:08:59;98777.13;;;10.35;100.00
17525;BME280;40431;52.198;9.902;2023-03-31T11:11:46;98775.88;;;10.39;100.00
17525;BME280;40431;52.198;9.902;2023-03-31T11:14:19;98779.56;;;10.38;100.00
17525;BME280;40431;52.198;9.902;2023-03-31T11:16:54;98775.28;;;10.35;100.00
17525;BME280;40431;52.198;9.902;2023-03-31T11:19:30;98768.88;;;10.36;100.00
17525;BME280;40431;52.198;9.902;2023-03-31T11:22:04;98763.06;;;10.41;100.00
17525;BME280;40431;52.198;9.902;2023-03-31T11:24:49;98768.13;;;10.34;100.00
17525;BME280;40431;52.198;9.902;2023-03-31T11:27:36;98769.97;;;10.34;100.00
17525;BME280;40431;52.198;9.902;2023-03-31T11:30:09;98775.16;;;10.37;100.00
17525;BME280;40431;52.198;9.902;2023-03-31T11:32:52;98760.81;;;10.46;100.00
17525;BME280;40431;52.198;9.902;2023-03-31T11:35:37;98755.09;;;10.49;100.00
17525;BME280;40431;52.198;9.902;2023-03-31T11:38:22;98754.81;;;10.52;100.00
17525;BME280;40431;52.198;9.902;2023-03-31T11:40:58;98761.66;;;10.57;100.00
17525;BME280;40431;52.198;9.902;2023-03-31T11:43:32;98760.59;;;10.69;100.00
17525;BME280;40431;52.198;9.902;2023-03-31T11:46:00;98754.03;;;10.81;100.00
17525;BME280;40431;52.198;9.902;2023-03-31T11:48:34;98757.63;;;10.92;100.00
17525;BME280;40431;52.198;9.902;2023-03-31T11:51:08;98764.34;;;11.07;100.00
17525;BME280;40431;52.198;9.902;2023-03-31T11:53:38;98757.81;;;11.19;100.00
17525;BME280;40431;52.198;9.902;2023-03-31T11:56:07;98752.69;;;11.26;100.00
17525;BME280;40431;52.198;9.902;2023-03-31T11:58:39;98745.22;;;11.28;100.00
17525;BME280;40431;52.198;9.902;2023-03-31T12:01:14;98748.09;;;11.27;100.00
17525;BME280;40431;52.198;9.902;2023-03-31T12:03:46;98748.53;;;11.22;100.00
17525;BME280;40431;52.198;9.902;2023-03-31T12:06:19;98730.69;;;11.19;100.00
17525;BME280;40431;52.198;9.902;2023-03-31T12:08:52;98731.38;;;11.22;100.00
17525;BME280;40431;52.198;9.902;2023-03-31T12:11:26;98728.38;;;11.15;100.00
17525;BME280;40431;52.198;9.902;2023-03-31T12:14:03;98729.22;;;11.15;100.00
17525;BME280;40431;52.198;9.902;2023-03-31T12:16:36;98723.81;;;11.15;100.00
17525;BME280;40431;52.198;9.902;2023-03-31T12:19:07;98721.09;;;11.15;100.00
17525;BME280;40431;52.198;9.902;2023-03-31T12:21:38;98711.69;;;11.10;100.00
17525;BME280;40431;52.198;9.902;2023-03-31T12:24:09;98704.13;;;11.13;100.00
17525;BME280;40431;52.198;9.902;2023-03-31T12:26:42;98709.25;;;11.16;100.00
17525;BME280;40431;52.198;9.902;2023-03-31T12:29:21;98712.69;;;11.18;100.00
17525;BME280;40431;52.198;9.902;2023-03-31T12:31:51;98699.13;;;11.18;100.00
17525;BME280;40431;52.198;9.902;2023-03-31T12:34:21;98699.97;;;11.19;100.00
17525;BME280;40431;52.198;9.902;2023-03-31T12:37:01;98691.69;;;11.20;100.00
17525;BME280;40431;52.198;9.902;2023-03-31T12:39:39;98681.84;;;11.19;100.00
17525;BME280;40431;52.198;9.902;2023-03-31T12:42:55;98691.97;;;11.27;100.00
17525;BME280;40431;52.198;9.902;2023-03-31T12:45:27;98674.69;;;11.38;100.00
17525;BME280;40431;52.198;9.902;2023-03-31T12:48:28;98673.25;;;11.44;100.00
17525;BME280;40431;52.198;9.902;2023-03-31T12:51:10;98670.69;;;11.42;100.00
17525;BME280;40431;52.198;9.902;2023-03-31T12:53:51;98666.69;;;11.46;100.00
17525;BME280;40431;52.198;9.902;2023-03-31T12:56:22;98674.09;;;11.54;100.00
17525;BME280;40431;52.198;9.902;2023-03-31T12:58:49;98664.66;;;11.58;100.00
17525;BME280;40431;52.198;9.902;2023-03-31T13:01:18;98658.06;;;11.61;100.00
17525;BME280;40431;52.198;9.902;2023-03-31T13:04:07;98659.91;;;11.70;100.00
17525;BME280;40431;52.198;9.902;2023-03-31T13:06:50;98651.47;;;11.73;100.00
17525;BME280;40431;52.198;9.902;2023-03-31T13:09:43;98651.16;;;11.76;100.00
17525;BME280;40431;52.198;9.902;2023-03-31T13:12:15;98650.56;;;11.82;100.00
17525;BME280;40431;52.198;9.902;2023-03-31T13:14:44;98646.81;;;11.93;100.00
17525;BME280;40431;52.198;9.902;2023-03-31T13:17:21;98636.78;;;11.94;100.00
17525;BME280;40431;52.198;9.902;2023-03-31T13:19:48;98635.81;;;11.95;100.00